UMII 070700Z 15005G08MPS 9999 BKN017 M08/M11 Q1014 TEMPO 2000 SN BKN005
QNH:(hPa/inHg/mmHg)1014 / 29.94 / 761
QFE:(hPa/inHg/mmHg)989 / 29.20 / 742
Temperature-8
Dew Point-11
Visibility2000
WeatherSnow
Cloud CoverBKN (1700);
BKN (500);
Transition Altitude6000 ft.
Transition LevelFL70
SQUAWK